Time;durP1;ratioP1;P1;durP2;ratioP2;P2;SDS_P1;SDS_P2;PMS_P1;PMS_P2;Temp;Humidity;BMP_temperature;BMP_pressure;BME280_temperature;BME280_humidity;BME280_pressure;Samples;Min_cycle;Max_cycle;Signal;HPM_P1;HPM_P2
2022/04/21 00:02:21;;;;;;;1999.90;999.90;;;13.20;99.90;;;;;;5075562;28;20281;-67
2022/04/21 00:04:47;;;;;;;1999.90;999.90;;;13.20;99.90;;;;;;5075471;28;20506;-67
2022/04/21 00:07:12;;;;;;;1999.90;999.90;;;13.20;99.90;;;;;;5076097;28;20236;-67
2022/04/21 00:09:38;;;;;;;1999.90;999.90;;;13.20;99.90;;;;;;5075958;28;20230;-67
2022/04/21 00:12:04;;;;;;;1999.90;999.90;;;13.20;99.90;;;;;;5076255;28;20662;-67
2022/04/21 00:14:31;;;;;;;1999.90;999.90;;;13.10;99.90;;;;;;5076270;28;20178;-67
2022/04/21 00:16:56;;;;;;;1999.90;999.90;;;13.00;99.90;;;;;;5075788;28;20417;-67
2022/04/21 00:19:22;;;;;;;1999.90;999.90;;;12.90;99.90;;;;;;5076123;28;20969;-67
2022/04/21 00:24:32;;;;;;;1999.90;999.90;;;12.80;99.90;;;;;;5075497;28;20667;-67
2022/04/21 00:26:57;;;;;;;1999.90;999.90;;;12.80;99.90;;;;;;5076042;28;20409;-67
2022/04/21 00:29:23;;;;;;;1999.90;999.90;;;12.80;99.90;;;;;;5075571;28;20660;-67
2022/04/21 00:31:49;;;;;;;1999.90;999.90;;;12.80;99.90;;;;;;5076255;28;20194;-67
2022/04/21 00:34:18;;;;;;;1999.90;999.90;;;12.70;99.90;;;;;;5075862;28;21082;-67
2022/04/21 00:36:44;;;;;;;1999.90;999.90;;;12.70;99.90;;;;;;5076283;28;20648;-67
2022/04/21 00:39:10;;;;;;;1999.90;999.90;;;12.60;99.90;;;;;;5076069;28;20441;-67
2022/04/21 00:41:35;;;;;;;1999.90;999.90;;;12.60;99.90;;;;;;5075981;28;20531;-67
2022/04/21 00:44:01;;;;;;;1999.90;999.90;;;12.60;99.90;;;;;;5076645;28;20563;-67
2022/04/21 00:46:27;;;;;;;1999.90;999.90;;;12.50;99.90;;;;;;5077596;28;20699;-67
2022/04/21 00:48:54;;;;;;;1999.90;999.90;;;12.50;99.90;;;;;;5076128;28;20176;-67
2022/04/21 00:51:20;;;;;;;1999.90;999.90;;;12.50;99.90;;;;;;5075208;28;20517;-67
2022/04/21 00:53:46;;;;;;;1999.90;999.90;;;12.40;99.90;;;;;;5076257;28;20402;-67
2022/04/21 00:56:12;;;;;;;1999.90;999.90;;;12.40;99.90;;;;;;5076406;28;20163;-67
2022/04/21 00:58:41;;;;;;;1999.90;999.90;;;12.40;99.90;;;;;;5076306;28;20176;-67
2022/04/21 01:02:46;;;;;;;1999.90;999.90;;;12.30;99.90;;;;;;5076582;28;20425;-67
2022/04/21 01:03:55;;;;;;;1999.90;999.90;;;12.30;99.90;;;;;;5075625;28;20512;-67
2022/04/21 01:06:23;;;;;;;1999.90;999.90;;;12.30;99.90;;;;;;5076251;28;20399;-67
2022/04/21 01:08:48;;;;;;;1999.90;999.90;;;12.30;99.90;;;;;;5076544;28;20407;-67
2022/04/21 01:11:16;;;;;;;1999.90;999.90;;;12.30;99.90;;;;;;5076252;28;20503;-67
2022/04/21 01:13:42;;;;;;;1999.90;999.90;;;12.20;99.90;;;;;;5076389;28;20413;-67
2022/04/21 01:16:08;;;;;;;1999.90;999.90;;;12.20;99.90;;;;;;5076109;28;20421;-67
2022/04/21 01:18:34;;;;;;;1999.90;999.90;;;12.20;99.90;;;;;;5076171;28;20409;-67
2022/04/21 01:20:59;;;;;;;1999.90;999.90;;;12.10;99.90;;;;;;5075915;28;20211;-67
2022/04/21 01:23:26;;;;;;;1999.90;999.90;;;12.10;99.90;;;;;;5075890;28;20464;-67
2022/04/21 01:25:52;;;;;;;1999.90;999.90;;;12.00;99.90;;;;;;5076093;28;20172;-67
2022/04/21 01:28:19;;;;;;;1999.90;999.90;;;11.90;99.90;;;;;;5075360;28;20779;-67
2022/04/21 01:30:45;;;;;;;1999.90;999.90;;;11.90;99.90;;;;;;5075862;28;20455;-67
2022/04/21 01:33:11;;;;;;;1999.90;999.90;;;11.80;99.90;;;;;;5075819;28;20912;-67
2022/04/21 01:35:37;;;;;;;1999.90;999.90;;;11.80;99.90;;;;;;5077409;22;20577;-72
2022/04/21 01:43:31;;;;;;;1999.90;999.90;;;11.80;99.90;;;;;;5031516;28;20447;-72
2022/04/21 01:45:57;;;;;;;1999.90;999.90;;;11.80;99.90;;;;;;5031320;28;20766;-72
2022/04/21 01:48:24;;;;;;;1999.90;999.90;;;11.80;99.90;;;;;;5031637;28;20156;-73
2022/04/21 01:50:49;;;;;;;1999.90;999.90;;;11.70;99.90;;;;;;5031619;28;20584;-72
2022/04/21 01:53:15;;;;;;;1999.90;999.90;;;11.70;99.90;;;;;;5031740;28;20411;-72
2022/04/21 01:55:41;;;;;;;1999.90;999.90;;;11.70;99.90;;;;;;5031243;28;20277;-73
2022/04/21 01:58:06;;;;;;;1999.90;999.90;;;11.60;99.90;;;;;;5031722;28;20497;-73
2022/04/21 02:00:32;;;;;;;1999.90;999.90;;;11.60;99.90;;;;;;5031603;28;20167;-72
2022/04/21 02:02:58;;;;;;;1999.90;999.90;;;11.50;99.90;;;;;;5031513;28;20170;-73
2022/04/21 02:05:23;;;;;;;1999.90;999.90;;;11.50;99.90;;;;;;5031432;28;20330;-73
2022/04/21 02:07:49;;;;;;;1999.90;999.90;;;11.40;99.90;;;;;;5031659;28;20178;-73
2022/04/21 02:10:19;;;;;;;1999.90;999.90;;;11.40;99.90;;;;;;5031551;28;20179;-73
2022/04/21 02:12:45;;;;;;;1999.90;999.90;;;11.30;99.90;;;;;;5035167;28;20547;-72
2022/04/21 02:15:12;;;;;;;1999.90;999.90;;;11.30;99.90;;;;;;5034673;28;20466;-73
2022/04/21 02:17:39;;;;;;;1999.90;999.90;;;11.20;99.90;;;;;;5034841;28;20407;-72
2022/04/21 02:20:06;;;;;;;1999.90;999.90;;;11.20;99.90;;;;;;5034821;28;20422;-71
2022/04/21 02:22:35;;;;;;;1999.90;999.90;;;11.20;99.90;;;;;;5034657;28;20447;-71
2022/04/21 02:25:02;;;;;;;1999.90;999.90;;;11.20;99.90;;;;;;5034271;28;20423;-71
2022/04/21 02:27:28;;;;;;;1999.90;999.90;;;11.20;99.90;;;;;;5034749;28;20399;-71
2022/04/21 02:29:54;;;;;;;1999.90;999.90;;;11.10;99.90;;;;;;5034703;28;20467;-71
2022/04/21 02:32:20;;;;;;;1999.90;999.90;;;11.20;99.90;;;;;;5034556;28;20169;-70
2022/04/21 02:34:46;;;;;;;1999.90;999.90;;;11.20;99.90;;;;;;5034054;28;20862;-71
2022/04/21 02:37:11;;;;;;;1999.90;999.90;;;11.20;99.90;;;;;;5034523;28;20506;-71
2022/04/21 02:39:37;;;;;;;1999.90;999.90;;;11.20;99.90;;;;;;5034423;28;20410;-71
2022/04/21 02:42:04;;;;;;;1999.90;999.90;;;11.10;99.90;;;;;;5034406;28;20204;-71
2022/04/21 02:44:31;;;;;;;1999.90;999.90;;;11.10;99.90;;;;;;5034056;28;20204;-71
2022/04/21 02:47:00;;;;;;;1999.90;999.90;;;11.00;99.90;;;;;;5034841;28;20486;-72
2022/04/21 02:49:26;;;;;;;1999.90;999.90;;;10.90;99.90;;;;;;5035477;28;20557;-72
2022/04/21 02:51:52;;;;;;;1999.90;999.90;;;10.90;99.90;;;;;;5035363;28;20407;-72
2022/04/21 02:57:20;;;;;;;1999.90;999.90;;;10.70;99.90;;;;;;5035549;28;20512;-72
2022/04/21 02:59:59;;;;;;;1999.90;999.90;;;10.70;99.90;;;;;;5035274;28;20446;-72
2022/04/21 03:02:25;;;;;;;1999.90;999.90;;;10.50;99.90;;;;;;5035169;28;20892;-72
2022/04/21 03:04:52;;;;;;;1999.90;999.90;;;10.50;99.90;;;;;;5035088;28;20428;-72
2022/04/21 03:07:22;;;;;;;1999.90;999.90;;;10.40;99.90;;;;;;5035082;28;20757;-72
2022/04/21 03:09:53;;;;;;;1999.90;999.90;;;10.40;99.90;;;;;;5034254;28;20423;-72
2022/04/21 03:12:21;;;;;;;1999.90;999.90;;;10.40;99.90;;;;;;5035124;28;20419;-72
2022/04/21 03:14:49;;;;;;;1999.90;999.90;;;10.40;99.90;;;;;;5034452;28;20465;-72
2022/04/21 03:17:15;;;;;;;1999.90;999.90;;;10.40;99.90;;;;;;5034728;28;20450;-71
2022/04/21 03:19:40;;;;;;;1999.90;999.90;;;10.30;99.90;;;;;;5035056;28;20407;-72
2022/04/21 03:24:54;;;;;;;1999.90;999.90;;;10.10;99.90;;;;;;5034844;28;20237;-72
2022/04/21 03:27:19;;;;;;;1999.90;999.90;;;10.10;99.90;;;;;;5034560;28;20801;-72
2022/04/21 03:29:45;;;;;;;1999.90;999.90;;;10.00;99.90;;;;;;5034584;28;20437;-72
2022/04/21 03:32:13;;;;;;;1999.90;999.90;;;10.00;99.90;;;;;;5034549;28;20168;-72
2022/04/21 03:34:42;;;;;;;1999.90;999.90;;;10.00;99.90;;;;;;5034321;28;20208;-71
2022/04/21 03:37:10;;;;;;;1999.90;999.90;;;9.90;99.90;;;;;;5033369;28;20453;-71
2022/04/21 03:39:36;;;;;;;1999.90;999.90;;;9.90;99.90;;;;;;5034745;28;20399;-72
2022/04/21 03:42:04;;;;;;;1999.90;999.90;;;9.80;99.90;;;;;;5034311;28;20889;-72
2022/04/21 03:44:29;;;;;;;1999.90;999.90;;;9.80;99.90;;;;;;5034099;28;20427;-71
2022/04/21 03:46:58;;;;;;;1999.90;999.90;;;9.70;99.90;;;;;;5033239;28;20472;-72
2022/04/21 03:49:29;;;;;;;1999.90;999.90;;;9.70;99.90;;;;;;5033206;28;20172;-72
2022/04/21 03:51:55;;;;;;;1999.90;999.90;;;9.70;99.90;;;;;;5033151;28;20769;-72
2022/04/21 03:54:22;;;;;;;1999.90;999.90;;;9.70;99.90;;;;;;5032733;28;20509;-72
2022/04/21 03:56:51;;;;;;;1999.90;999.90;;;9.70;99.90;;;;;;5033029;28;20418;-72
2022/04/21 03:59:18;;;;;;;1999.90;999.90;;;9.70;99.90;;;;;;5032962;28;20406;-72
2022/04/21 04:01:44;;;;;;;1999.90;999.90;;;9.70;99.90;;;;;;5032969;28;20413;-73
2022/04/21 04:04:10;;;;;;;1999.90;999.90;;;9.60;99.90;;;;;;5032525;28;20430;-72
2022/04/21 04:12:05;;;;;;;1999.90;999.90;;;9.60;99.90;;;;;;5032838;28;20413;-72
2022/04/21 04:14:31;;;;;;;1999.90;999.90;;;9.60;99.90;;;;;;5032249;28;20465;-73
2022/04/21 04:16:57;;;;;;;1999.90;999.90;;;9.60;99.90;;;;;;5032696;28;20493;-72
2022/04/21 04:19:23;;;;;;;1999.90;999.90;;;9.60;99.90;;;;;;5032852;28;20485;-72
2022/04/21 04:21:49;;;;;;;1999.90;999.90;;;9.60;99.90;;;;;;5032929;28;20175;-73
2022/04/21 04:24:15;;;;;;;1999.90;999.90;;;9.60;99.90;;;;;;5032427;28;20278;-73
2022/04/21 04:26:41;;;;;;;1999.90;999.90;;;9.60;99.90;;;;;;5032649;28;20500;-72
2022/04/21 04:29:07;;;;;;;1999.90;999.90;;;9.60;99.90;;;;;;5032547;28;20454;-72
2022/04/21 04:31:33;;;;;;;1999.90;999.90;;;9.60;99.90;;;;;;5032533;28;20509;-73
2022/04/21 04:33:59;;;;;;;1999.90;999.90;;;9.50;99.90;;;;;;5031730;28;20582;-73
2022/04/21 04:36:25;;;;;;;1999.90;999.90;;;9.40;99.90;;;;;;5032317;28;20402;-72
2022/04/21 04:38:50;;;;;;;1999.90;999.90;;;9.30;99.90;;;;;;5032316;28;20412;-72
2022/04/21 04:44:01;;;;;;;1999.90;999.90;;;9.20;99.90;;;;;;5032242;28;20695;-72
2022/04/21 04:46:35;;;;;;;1999.90;999.90;;;9.10;99.90;;;;;;5032301;28;20508;-72
2022/04/21 04:49:06;;;;;;;1999.90;999.90;;;9.10;99.90;;;;;;5032237;28;20431;-71
2022/04/21 04:51:33;;;;;;;1999.90;999.90;;;9.00;99.90;;;;;;5032122;28;20937;-71
2022/04/21 04:53:59;;;;;;;1999.90;999.90;;;8.90;99.90;;;;;;5031824;28;20457;-71
2022/04/21 04:56:27;;;;;;;1999.90;999.90;;;8.90;99.90;;;;;;5031973;28;20397;-72
2022/04/21 04:58:53;;;;;;;1999.90;999.90;;;8.90;99.90;;;;;;5032015;28;20494;-72
2022/04/21 05:01:26;;;;;;;1999.90;999.90;;;8.80;99.90;;;;;;5031904;28;20452;-71
2022/04/21 05:03:59;;;;;;;1999.90;999.90;;;8.80;99.90;;;;;;5031939;28;20434;-71
2022/04/21 05:06:24;;;;;;;1999.90;999.90;;;8.90;99.90;;;;;;5031965;28;20500;-71
2022/04/21 05:08:50;;;;;;;1999.90;999.90;;;8.90;99.90;;;;;;5031899;28;20501;-71
2022/04/21 05:11:16;;;;;;;1999.90;999.90;;;9.00;99.90;;;;;;5031916;28;20172;-71
2022/04/21 05:13:42;;;;;;;1999.90;999.90;;;9.00;99.90;;;;;;5031654;28;20199;-71
2022/04/21 05:16:08;;;;;;;1999.90;999.90;;;9.00;99.90;;;;;;5031610;28;20425;-71
2022/04/21 05:18:34;;;;;;;1999.90;999.90;;;8.90;99.90;;;;;;5031862;28;20402;-72
2022/04/21 05:21:00;;;;;;;1999.90;999.90;;;8.80;99.90;;;;;;5031950;28;20541;-71
2022/04/21 05:23:32;;;;;;;1999.90;999.90;;;8.90;99.90;;;;;;5031862;28;20410;-72
2022/04/21 05:25:58;;;;;;;1999.90;999.90;;;8.90;99.90;;;;;;5031562;28;20160;-72
2022/04/21 05:28:24;;;;;;;1999.90;999.90;;;8.90;99.90;;;;;;5031717;28;20767;-72
2022/04/21 05:30:58;;;;;;;1999.90;999.90;;;9.00;99.90;;;;;;5031781;28;20402;-71
2022/04/21 05:33:25;;;;;;;1999.90;999.90;;;9.10;99.90;;;;;;5031615;28;20401;-71
2022/04/21 05:35:51;;;;;;;1999.90;999.90;;;9.20;99.90;;;;;;5031272;28;20450;-71
2022/04/21 05:38:19;;;;;;;1999.90;999.90;;;9.30;99.90;;;;;;5031614;28;20974;-71
2022/04/21 05:40:45;;;;;;;1999.90;999.90;;;9.40;99.90;;;;;;5031626;28;20402;-71
2022/04/21 05:43:14;;;;;;;1999.90;999.90;;;9.50;99.90;;;;;;5031532;28;20777;-72
2022/04/21 05:45:40;;;;;;;1999.90;999.90;;;9.70;99.90;;;;;;5031560;28;20433;-72
2022/04/21 05:48:06;;;;;;;1999.90;999.90;;;9.80;99.90;;;;;;5035498;28;20472;-71
2022/04/21 05:50:32;;;;;;;1999.90;999.90;;;9.90;99.90;;;;;;5035355;28;20457;-71
2022/04/21 05:53:02;;;;;;;1999.90;999.90;;;10.00;99.90;;;;;;5035354;28;20437;-71
2022/04/21 05:55:28;;;;;;;1999.90;999.90;;;10.20;99.90;;;;;;5034802;28;20466;-71
2022/04/21 05:57:54;;;;;;;1999.90;999.90;;;10.40;99.90;;;;;;5035251;28;20403;-71
2022/04/21 06:00:21;;;;;;;1999.90;999.90;;;10.50;99.90;;;;;;5035239;28;20467;-71
2022/04/21 06:02:46;;;;;;;1999.90;999.90;;;10.60;99.90;;;;;;5035195;28;20404;-71
2022/04/21 06:05:12;;;;;;;1999.90;999.90;;;10.80;99.90;;;;;;5034750;28;20458;-71
2022/04/21 06:07:38;;;;;;;1999.90;999.90;;;10.90;99.90;;;;;;5035138;28;20187;-72
2022/04/21 06:10:04;;;;;;;1999.90;999.90;;;11.00;99.90;;;;;;5035020;28;20172;-72
2022/04/21 06:12:29;;;;;;;1999.90;999.90;;;11.00;99.90;;;;;;5034987;28;20177;-71
2022/04/21 06:14:55;;;;;;;1999.90;999.90;;;11.10;99.90;;;;;;5034583;28;20977;-72
2022/04/21 06:17:21;;;;;;;1999.90;999.90;;;11.20;99.90;;;;;;5034925;28;20181;-72
2022/04/21 06:19:47;;;;;;;1999.90;999.90;;;11.30;99.90;;;;;;5034967;28;20176;-72
2022/04/21 06:22:13;;;;;;;1999.90;999.90;;;11.40;99.90;;;;;;5034871;28;20179;-71
2022/04/21 06:24:39;;;;;;;1999.90;999.90;;;11.50;99.90;;;;;;5034391;28;20422;-72
2022/04/21 06:27:05;;;;;;;1999.90;999.90;;;11.60;99.90;;;;;;5034704;28;20949;-72
2022/04/21 06:29:31;;;;;;;1999.90;999.90;;;11.60;99.90;;;;;;5034662;28;20168;-72
2022/04/21 06:31:56;;;;;;;1999.90;999.90;;;11.70;99.90;;;;;;5034647;28;20169;-71
2022/04/21 06:34:24;;;;;;;1999.90;999.90;;;11.70;99.90;;;;;;5033962;28;21048;-71
2022/04/21 06:36:50;;;;;;;1999.90;999.90;;;11.80;99.90;;;;;;5034540;28;20263;-72
2022/04/21 06:39:16;;;;;;;1999.90;999.90;;;11.90;99.90;;;;;;5034408;28;20484;-72
2022/04/21 06:41:41;;;;;;;1999.90;999.90;;;12.00;99.90;;;;;;5034400;28;20177;-72
2022/04/21 06:49:36;;;;;;;1999.90;999.90;;;12.20;99.90;;;;;;5034498;28;20424;-72
2022/04/21 06:52:02;;;;;;;1999.90;999.90;;;12.30;99.90;;;;;;5034310;28;20416;-72
2022/04/21 06:54:27;;;;;;;1999.90;999.90;;;12.40;99.90;;;;;;5033792;28;20204;-72
2022/04/21 06:56:53;;;;;;;1999.90;999.90;;;12.50;99.90;;;;;;5033814;28;20904;-71
2022/04/21 06:59:18;;;;;;;1999.90;999.90;;;12.60;99.90;;;;;;5034176;28;20175;-72
2022/04/21 07:01:46;;;;;;;1999.90;999.90;;;12.80;99.90;;;;;;5034136;28;20587;-72
2022/04/21 07:04:13;;;;;;;1999.90;999.90;;;12.90;99.90;;;;;;5033624;28;20268;-72
2022/04/21 07:06:38;;;;;;;1999.90;999.90;;;12.90;99.90;;;;;;5034014;28;20420;-72
2022/04/21 07:09:04;;;;;;;1999.90;999.90;;;13.00;99.90;;;;;;5033920;28;20415;-72
2022/04/21 07:11:30;;;;;;;1999.90;999.90;;;13.10;99.90;;;;;;5033870;28;20182;-72
2022/04/21 07:13:56;;;;;;;1999.90;999.90;;;13.20;99.90;;;;;;5033754;28;20634;-72
2022/04/21 07:16:22;;;;;;;1999.90;999.90;;;13.40;99.90;;;;;;5033743;28;20430;-72
2022/04/21 07:18:48;;;;;;;1999.90;999.90;;;13.50;99.90;;;;;;5033741;28;20172;-72
2022/04/21 07:21:13;;;;;;;1999.90;999.90;;;13.50;99.90;;;;;;5033733;28;20201;-71
2022/04/21 07:23:39;;;;;;;1999.90;999.90;;;13.50;99.90;;;;;;5033597;28;20199;-72
2022/04/21 07:26:05;;;;;;;1999.90;999.90;;;13.50;99.90;;;;;;5033314;28;20409;-72
2022/04/21 07:28:32;;;;;;;1999.90;999.90;;;13.60;99.90;;;;;;5033538;28;20196;-71
2022/04/21 07:30:58;;;;;;;1999.90;999.90;;;13.60;99.90;;;;;;5033493;28;20410;-72
2022/04/21 07:33:23;;;;;;;1999.90;999.90;;;13.70;99.90;;;;;;5033371;28;20792;-72
2022/04/21 07:35:49;;;;;;;1999.90;999.90;;;13.70;99.90;;;;;;5121967;22;20321;-68
2022/04/21 07:38:14;;;;;;;1999.90;999.90;;;13.80;99.90;;;;;;5053334;28;20163;-68
2022/04/21 07:40:41;;;;;;;1999.90;999.90;;;14.00;99.90;;;;;;5053219;28;20520;-68
2022/04/21 07:43:09;;;;;;;1999.90;999.90;;;14.00;99.90;;;;;;5053182;28;20712;-68
2022/04/21 07:45:40;;;;;;;1999.90;999.90;;;14.00;99.90;;;;;;5052827;28;20429;-68
2022/04/21 07:48:06;;;;;;;1999.90;999.90;;;13.90;99.90;;;;;;5053158;28;20462;-67
2022/04/21 07:50:32;;;;;;;1999.90;999.90;;;13.90;99.90;;;;;;5053054;28;20405;-68
2022/04/21 07:53:13;;;;;;;1999.90;999.90;;;13.90;99.90;;;;;;5053145;28;20499;-68
2022/04/21 07:55:39;;;;;;;1999.90;999.90;;;13.90;99.90;;;;;;5052540;28;20227;-68
2022/04/21 07:58:06;;;;;;;1999.90;999.90;;;13.90;99.90;;;;;;5052903;28;20394;-68
2022/04/21 08:00:34;;;;;;;1999.90;999.90;;;14.00;99.90;;;;;;5052834;28;20443;-68
2022/04/21 08:03:00;;;;;;;1999.90;999.90;;;14.00;99.90;;;;;;5052802;28;20417;-68
2022/04/21 08:05:25;;;;;;;1999.90;999.90;;;14.00;99.90;;;;;;5052345;28;20427;-68
2022/04/21 08:07:52;;;;;;;1999.90;999.90;;;13.90;99.90;;;;;;5052670;28;20642;-68
2022/04/21 08:10:18;;;;;;;1999.90;999.90;;;13.90;99.90;;;;;;5052140;28;20177;-68
2022/04/21 08:12:49;;;;;;;1999.90;999.90;;;14.00;99.90;;;;;;5052512;28;20434;-67
2022/04/21 08:15:23;;;;;;;1999.90;999.90;;;14.10;99.90;;;;;;5052239;28;20455;-68
2022/04/21 08:17:50;;;;;;;1999.90;999.90;;;14.30;99.90;;;;;;5052760;28;20422;-67
2022/04/21 08:20:15;;;;;;;1999.90;999.90;;;14.30;99.90;;;;;;5052557;28;20395;-68
2022/04/21 08:22:41;;;;;;;1999.90;999.90;;;14.40;99.90;;;;;;5052544;28;20412;-68
2022/04/21 08:33:21;;;;;;;1999.90;999.90;;;14.50;99.90;;;;;;5052030;28;20433;-69
2022/04/21 08:35:49;;;;;;;1999.90;999.90;;;14.70;99.90;;;;;;5057850;28;20455;-69
2022/04/21 08:38:16;;;;;;;1999.90;999.90;;;14.80;99.90;;;;;;5061207;28;20217;-68
2022/04/21 08:40:56;;;;;;;1999.90;999.90;;;15.00;99.90;;;;;;5055883;28;20406;-68
2022/04/21 08:43:23;;;;;;;1999.90;999.90;;;15.20;99.90;;;;;;5048185;28;20890;-69
2022/04/21 08:45:50;;;;;;;1999.90;999.90;;;15.30;99.90;;;;;;5051071;28;20913;-68
2022/04/21 08:48:18;;;;;;;1999.90;999.90;;;15.40;99.90;;;;;;5051847;28;20430;-68
2022/04/21 08:50:44;;;;;;;1999.90;999.90;;;15.50;99.90;;;;;;5051776;28;20443;-69
2022/04/21 08:53:13;;;;;;;1999.90;999.90;;;15.60;99.90;;;;;;5049367;28;20420;-68
2022/04/21 08:55:39;;;;;;;1999.90;999.90;;;15.70;99.90;;;;;;5048383;28;20998;-68
2022/04/21 08:58:05;;;;;;;1999.90;999.90;;;15.80;99.90;;;;;;5049206;28;20885;-69
2022/04/21 09:00:31;;;;;;;1999.90;999.90;;;15.90;99.90;;;;;;5049203;28;20516;-68
2022/04/21 09:03:03;;;;;;;1999.90;999.90;;;16.00;99.90;;;;;;5048748;28;20475;-69
2022/04/21 09:05:30;;;;;;;1999.90;999.90;;;16.00;99.90;;;;;;5048389;28;20432;-67
2022/04/21 09:07:57;;;;;;;1999.90;999.90;;;16.00;99.90;;;;;;5048878;28;20422;-67
2022/04/21 09:10:24;;;;;;;1999.90;999.90;;;16.20;99.90;;;;;;5049233;28;20433;-69
2022/04/21 09:12:55;;;;;;;1999.90;999.90;;;16.10;99.90;;;;;;5048087;28;20440;-68
2022/04/21 09:15:31;;;;;;;1999.90;999.90;;;15.90;99.90;;;;;;5047680;28;20535;-68
2022/04/21 09:18:02;;;;;;;1999.90;999.90;;;15.80;99.90;;;;;;5048518;28;20410;-68
2022/04/21 09:20:33;;;;;;;1999.90;999.90;;;15.90;99.90;;;;;;5052726;28;20407;-69
2022/04/21 09:23:00;;;;;;;1999.90;999.90;;;16.10;99.90;;;;;;5057750;28;20516;-68
2022/04/21 09:25:27;;;;;;;1999.90;999.90;;;16.40;99.90;;;;;;5053876;28;20421;-69
2022/04/21 09:27:54;;;;;;;1999.90;999.90;;;16.70;99.90;;;;;;5051637;28;20776;-68
2022/04/21 09:30:20;;;;;;;1999.90;999.90;;;16.70;99.90;;;;;;5051934;28;20428;-69
2022/04/21 09:32:57;;;;;;;1999.90;999.90;;;16.90;99.90;;;;;;5052123;28;20429;-69
2022/04/21 09:35:26;;;;;;;1999.90;999.90;;;17.00;97.40;;;;;;5050074;28;20227;-68
2022/04/21 09:37:54;;;;;;;1999.90;999.90;;;17.10;97.60;;;;;;5051618;28;20428;-69
2022/04/21 09:40:22;;;;;;;1999.90;999.90;;;17.10;98.20;;;;;;5051544;28;20967;-69
2022/04/21 09:42:59;;;;;;;1999.90;999.90;;;17.00;95.60;;;;;;5051986;28;20778;-69
2022/04/21 09:46:21;;;;;;;1999.90;999.90;;;16.70;90.00;;;;;;5051104;28;20560;-69
2022/04/21 09:48:28;;;;;;;1999.90;999.90;;;16.60;91.90;;;;;;5043802;28;20425;-69
2022/04/21 09:50:55;;;;;;;1999.90;999.90;;;16.90;93.40;;;;;;5051649;28;20441;-68
2022/04/21 09:53:23;;;;;;;1999.90;999.90;;;17.20;90.50;;;;;;5051003;28;20462;-68
2022/04/21 09:56:07;;;;;;;1999.90;999.90;;;17.50;83.90;;;;;;5051092;28;20433;-68
2022/04/21 09:58:38;;;;;;;1999.90;999.90;;;17.60;77.60;;;;;;5053455;28;20414;-69
2022/04/21 10:01:04;;;;;;;1999.90;999.90;;;17.80;81.90;;;;;;5055371;28;20824;-68
2022/04/21 10:03:34;;;;;;;1999.90;999.90;;;18.00;72.10;;;;;;5054919;28;20429;-68
2022/04/21 10:06:00;;;;;;;1999.90;999.90;;;18.20;65.20;;;;;;5054706;28;20181;-68
2022/04/21 10:08:28;;;;;;;1999.90;999.90;;;18.40;65.30;;;;;;5055069;28;20462;-68
2022/04/21 10:10:55;;;;;;;1999.90;999.90;;;18.60;62.70;;;;;;5055117;28;20438;-69
2022/04/21 10:13:21;;;;;;;1999.90;999.90;;;18.90;63.10;;;;;;5054854;28;20435;-69
2022/04/21 10:15:48;;;;;;;1999.90;999.90;;;19.00;59.50;;;;;;5054560;28;20420;-69
2022/04/21 10:18:16;;;;;;;1999.90;999.90;;;19.10;56.00;;;;;;5054892;28;20402;-69
2022/04/21 10:20:44;;;;;;;1999.90;999.90;;;19.20;55.80;;;;;;5054766;28;20836;-69
2022/04/21 10:23:18;;;;;;;1999.90;999.90;;;19.40;56.60;;;;;;5054807;28;20767;-69
2022/04/21 10:25:44;;;;;;;1999.90;999.90;;;19.60;56.70;;;;;;5054307;28;20856;-68
2022/04/21 10:28:38;;;;;;;1999.90;999.90;;;19.80;53.80;;;;;;5054296;28;20476;-68
2022/04/21 10:31:29;;;;;;;1999.90;999.90;;;20.00;49.80;;;;;;5054518;28;20403;-68
2022/04/21 10:34:05;;;;;;;1999.90;999.90;;;20.20;53.80;;;;;;5054368;28;20953;-68
2022/04/21 10:36:42;;;;;;;1999.90;999.90;;;20.20;47.30;;;;;;5054255;28;20428;-69
2022/04/21 10:39:17;;;;;;;1999.90;999.90;;;20.20;42.80;;;;;;5054622;28;20413;-68
2022/04/21 10:41:43;;;;;;;1999.90;999.90;;;20.20;43.50;;;;;;5054254;28;20409;-68
2022/04/21 10:44:16;;;;;;;1999.90;999.90;;;20.30;45.90;;;;;;5053518;28;20446;-68
2022/04/21 10:46:42;;;;;;;1999.90;999.90;;;20.10;41.30;;;;;;5054016;28;20852;-69
2022/04/21 10:49:09;;;;;;;1999.90;999.90;;;19.90;39.10;;;;;;5054023;28;20442;-68
2022/04/21 10:57:31;;;;;;;1999.90;999.90;;;20.30;42.20;;;;;;5053910;28;20440;-69
2022/04/21 11:00:05;;;;;;;1999.90;999.90;;;20.50;41.30;;;;;;5054033;28;20385;-68
2022/04/21 11:02:41;;;;;;;1999.90;999.90;;;20.80;40.90;;;;;;5053821;28;20401;-68
2022/04/21 11:05:22;;;;;;;1999.90;999.90;;;21.00;37.60;;;;;;5053280;28;20461;-69
2022/04/21 11:08:10;;;;;;;1999.90;999.90;;;21.10;35.80;;;;;;5053392;28;20400;-69
2022/04/21 11:10:38;;;;;;;1999.90;999.90;;;21.20;35.00;;;;;;5053844;28;20396;-69
2022/04/21 11:13:06;;;;;;;1999.90;999.90;;;21.00;32.10;;;;;;5053751;28;20459;-69
2022/04/21 11:15:46;;;;;;;1999.90;999.90;;;21.00;33.20;;;;;;5053150;28;20490;-69
2022/04/21 11:18:20;;;;;;;1999.90;999.90;;;21.10;31.30;;;;;;5053600;28;20384;-69
2022/04/21 11:20:51;;;;;;;1999.90;999.90;;;20.80;29.80;;;;;;5053564;28;20438;-68
2022/04/21 11:23:31;;;;;;;1999.90;999.90;;;20.70;31.50;;;;;;5053511;28;20404;-69
2022/04/21 11:26:09;;;;;;;1999.90;999.90;;;20.80;32.60;;;;;;5052884;28;20423;-69
2022/04/21 11:28:35;;;;;;;1999.90;999.90;;;20.80;29.80;;;;;;5053231;28;20499;-68
2022/04/21 11:31:02;;;;;;;1999.90;999.90;;;20.90;28.70;;;;;;5053390;28;20560;-69
2022/04/21 11:33:28;;;;;;;1999.90;999.90;;;21.00;31.40;;;;;;5053269;28;20920;-69
2022/04/21 11:36:11;;;;;;;1999.90;999.90;;;21.00;31.40;;;;;;5052823;28;20454;-68
2022/04/21 11:38:44;;;;;;;1999.90;999.90;;;21.10;29.70;;;;;;5053227;28;20168;-68
2022/04/21 11:41:12;;;;;;;1999.90;999.90;;;21.20;29.60;;;;;;5053143;28;20399;-69
2022/04/21 11:43:45;;;;;;;1999.90;999.90;;;21.10;28.30;;;;;;5052022;28;20465;-69
2022/04/21 11:46:12;;;;;;;1999.90;999.90;;;21.10;28.30;;;;;;5052716;28;20393;-69
2022/04/21 11:48:42;;;;;;;1999.90;999.90;;;21.00;28.50;;;;;;5052809;28;20406;-68
2022/04/21 11:51:09;;;;;;;1999.90;999.90;;;21.00;29.00;;;;;;5053052;28;20436;-69
2022/04/21 11:53:37;;;;;;;1999.90;999.90;;;20.90;29.50;;;;;;5052823;28;20815;-68
2022/04/21 11:56:06;;;;;;;1999.90;999.90;;;20.80;30.70;;;;;;5052488;28;21012;-69
2022/04/21 11:58:34;;;;;;;1999.90;999.90;;;20.60;30.70;;;;;;5053058;28;20791;-69
2022/04/21 12:06:51;;;;;;;1999.90;999.90;;;20.10;31.90;;;;;;5053094;28;20550;-68
2022/04/21 12:09:22;;;;;;;1999.90;999.90;;;19.90;33.30;;;;;;5052857;28;20398;-68
2022/04/21 12:11:54;;;;;;;1999.90;999.90;;;19.80;32.80;;;;;;5051410;28;20420;-68
2022/04/21 12:14:20;;;;;;;1999.90;999.90;;;19.60;33.80;;;;;;5052319;28;20455;-68
2022/04/21 12:16:54;;;;;;;1999.90;999.90;;;19.60;35.60;;;;;;5052631;28;20406;-68
2022/04/21 12:19:38;;;;;;;1999.90;999.90;;;20.00;36.60;;;;;;5052666;28;20963;-68
2022/04/21 12:22:13;;;;;;;1999.90;999.90;;;20.50;34.80;;;;;;5052679;28;20378;-69
2022/04/21 12:24:41;;;;;;;1999.90;999.90;;;20.50;34.20;;;;;;5052006;28;20427;-68
2022/04/21 12:27:18;;;;;;;1999.90;999.90;;;21.00;34.70;;;;;;5052427;28;20428;-68
2022/04/21 12:29:51;;;;;;;1999.90;999.90;;;21.80;32.80;;;;;;5052439;28;20902;-68
2022/04/21 12:32:25;;;;;;;1999.90;999.90;;;22.20;31.70;;;;;;5052356;28;20405;-68
2022/04/21 12:34:55;;;;;;;1999.90;999.90;;;22.70;32.10;;;;;;5051986;28;20951;-68
2022/04/21 12:37:25;;;;;;;1999.90;999.90;;;22.90;29.30;;;;;;5052202;28;20406;-68
2022/04/21 12:39:53;;;;;;;1999.90;999.90;;;23.30;28.40;;;;;;5052421;28;20381;-69
2022/04/21 12:42:19;;;;;;;1999.90;999.90;;;23.60;29.00;;;;;;5052366;28;20909;-69
2022/04/21 12:44:46;;;;;;;1999.90;999.90;;;24.30;27.40;;;;;;5050516;28;20468;-69
2022/04/21 12:47:19;;;;;;;1999.90;999.90;;;24.60;26.20;;;;;;5052079;28;20388;-68
2022/04/21 12:49:57;;;;;;;1999.90;999.90;;;25.00;25.00;;;;;;5052084;28;20467;-69
2022/04/21 12:52:52;;;;;;;1999.90;999.90;;;25.30;25.30;;;;;;5052234;28;20841;-69
2022/04/21 12:55:19;;;;;;;1999.90;999.90;;;26.20;24.00;;;;;;5044253;28;20790;-69